Vaaraa aiheuttavia sääilmiöitä ei ole odotettavissa.    Ei varoituksia

Webkamera Lisätietoa Webcam


Yksityisiä sääasemia lähellä:

Sääasema Ruovesi, Lehtissaari

Sääasema Juupajoki

Sääasema Orivesi

Sääasema Muurame

Sääasema Jyväskylä

Sääasema Vihtavuori


Löydät sääaseman tiedot myös:

Finland Weather Exchange

European Weather Network

Weather Underground

AWEKAS



Säätiedot lähimmiltä METAR asemilta

   
EFHA - Halli (Fin-Afb), Finland
Etäisyys asemalta: Kaakko 25 km
Päivitetty: 12.12.2018 12:20
Melkein pilvistä  
Melkein pilvistä  
   Tuuli: Pohjoiskoillinen 3.1 m/s
Tuuli: Pohjoiskoillinen 3.1 m/s
Lämpötila: -1°C
Tuulen hyytävyys: -5°C
Kastepiste: -3°C
Kosteus: 86%
Ilmanpaine: 1028 hPa
Pilvisyys: Melkein pilvistä
Näkyvyys: Enemmän kuin 10 km
Pilvitiedot: Melkein pilvistä 366 m
EFHA 121020Z 02006KT 9999 BKN012 M01/M03 Q1028
EFJY - Jyvaskyla (Mil/Civ), Finland
Etäisyys asemalta: Koillinen 75 km
Päivitetty: 12.12.2018 12:20
Pilvistä  
Pilvistä  
   Tuuli: Pohjoinen 2.6 m/s
Tuuli: Pohjoinen 2.6 m/s
Lämpötila: -2°C
Tuulen hyytävyys: -6°C
Kastepiste: -3°C
Kosteus: 93%
Ilmanpaine: 1028 hPa
Pilvisyys: Pilvistä
Näkyvyys: Enemmän kuin 10 km
Pilvitiedot: Vähäistä pilvisyyttä 274 m,
Pilvistä 701 m
EFJY 121020Z AUTO 36005KT 9999 FEW009 OVC023 M02/M03 Q1028
EFTP - Tampere/Pirkkala, Finland
Etäisyys asemalta: Lounas 81 km
Päivitetty: 12.12.2018 12:20
Heikkoa lumisadetta, Melkein pilvistä  
Heikkoa lumisadetta, Melkein pilvistä  
   Tuuli: Pohjoinen 2.1 m/s
Tuuli: Pohjoinen 2.1 m/s
Lämpötila: 0°C
Tuulen hyytävyys: -3°C
Kastepiste: -1°C
Kosteus: 93%
Ilmanpaine: 1029 hPa
Pilvisyys: Melkein pilvistä
Näkyvyys: 8 km
Pilvitiedot: Puolipilvistä 183 m,
Melkein pilvistä 610 m
EFTP 121020Z 36004KT 8000 -SN SCT006 BKN020 00/M01 Q1029
EFSI - Seinajoki-Ilmajoki, Finland
Etäisyys asemalta: Luode 114 km
Päivitetty: 12.12.2018 12:20
Pilvistä  
Pilvistä  
   Tuuli: Pohjoinen 2.6 m/s
Tuuli: Pohjoinen 2.6 m/s
Lämpötila: -1°C
Tuulen hyytävyys: -4°C
Kastepiste: -1°C
Kosteus: 100%
Ilmanpaine: 1030 hPa
Pilvisyys: Pilvistä
Näkyvyys: Enemmän kuin 10 km
Pilvitiedot: Pilvistä 183 m
EFSI 121020Z AUTO 01005KT 340V050 9999 OVC006 M01/M01 Q1030
EFMI - Mikkeli, Finland
Etäisyys asemalta: Itäkaakko 147 km
Päivitetty: 12.12.2018 12:20
Pilvistä  
Pilvistä  
   Tuuli: Vaihtelee 0.5 m/s
Tuuli: Vaihtelee 0.5 m/s
Lämpötila: -2°C
Kastepiste: -3°C
Kosteus: 93%
Ilmanpaine: 1028 hPa
Pilvisyys: Pilvistä
Näkyvyys: Enemmän kuin 10 km
Pilvitiedot: Pilvistä 213 m
EFMI 121020Z AUTO VRB01KT 9999 OVC007 M02/M03 Q1028
EFPO - Pori (Mil/Civ), Finland
Etäisyys asemalta: Länsilounas 154 km
Päivitetty: 12.12.2018 12:20
Pilvistä  
Pilvistä  
   Tuuli: Pohjoinen 2.1 m/s
Tuuli: Pohjoinen 2.1 m/s
Lämpötila: 1°C
Tuulen hyytävyys: -1°C
Kastepiste: -1°C
Kosteus: 87%
Ilmanpaine: 1030 hPa
Pilvisyys: Pilvistä
Näkyvyys: Enemmän kuin 10 km
Pilvitiedot: Puolipilvistä 213 m,
Pilvistä 274 m
EFPO 121020Z AUTO 01004KT 9999 SCT007/// OVC009/// 01/M01 Q1030
EFUT - Utti (Fin-Afb), Finland
Etäisyys asemalta: Kaakko 180 km
Päivitetty: 12.12.2018 12:20
Heikkoja lumijyväsiä, Melkein pilvistä  
Heikkoja lumijyväsiä, Melkein pilvistä  
   Tuuli: Pohjoinen 3.1 m/s
Tuuli: Pohjoinen 3.1 m/s
Lämpötila: -2°C
Tuulen hyytävyys: -6°C
Kastepiste: -3°C
Kosteus: 93%
Ilmanpaine: 1027 hPa
Pilvisyys: Melkein pilvistä
Näkyvyys: Enemmän kuin 10 km
Pilvitiedot: Melkein pilvistä 244 m,
Melkein pilvistä 853 m
EFUT 121020Z 35006KT 9999 -SG BKN008 BKN028 M02/M03 Q1027
EFVA - Vaasa, Finland
Etäisyys asemalta: Luode 180 km
Päivitetty: 12.12.2018 12:20
Heikkoa lumisadetta, Pilvistä  
Heikkoa lumisadetta, Pilvistä  
   Tuuli: Tyyntä
Tuuli: Tyyntä
Lämpötila: -1°C
Kastepiste: -1°C
Kosteus: 100%
Ilmanpaine: 1031 hPa
Pilvisyys: Pilvistä
Näkyvyys: 8 km
Pilvitiedot: Melkein pilvistä 183 m,
Pilvistä 244 m
EFVA 121020Z AUTO 00000KT 8000 -SN BKN006/// OVC008/// M01/M01 Q1031
EFHK - Helsinki/Vantaa, Finland
Etäisyys asemalta: Etelä 191 km
Päivitetty: 12.12.2018 12:20
Heikkoa lumisadetta, Melkein pilvistä  
Heikkoa lumisadetta, Melkein pilvistä  
   Tuuli: Pohjoinen 3.6 m/s
Tuuli: Pohjoinen 3.6 m/s
Lämpötila: 0°C
Tuulen hyytävyys: -4°C
Kastepiste: -2°C
Kosteus: 87%
Ilmanpaine: 1028 hPa
Pilvisyys: Melkein pilvistä
Näkyvyys: 9 km
Pilvitiedot: Vähäistä pilvisyyttä 335 m,
Melkein pilvistä 610 m
EFHK 121020Z 35007KT 9000 -SN FEW011 BKN020 M00/M02 Q1028 TEMPO 7000 BKN013

Alkuperäinen skripti  Saratoga-weather.org Sovitettu myös templatelle  Weerstation Leuven

Laitteet joita käytämme:

Sääasema
Davis VP2

Sääasemaohjelma
Cumulus

Sääaseman palvelin
HP ProBook 6460b

Palveluntarjoaja
Radicenter

Davis VP2

Cumulus

HP ProBook 6460b

Radicenter




Flag Counter Cumulus Top Weather Sites